PWSweather.com
Personal Weather Stations
Station Observations
WXGLH1124
Southern Oaks, Indianapolis, IN 46217

Southern OaksIndianapolis, IN 46217

Lat: 39.65113, Lon: -86.16866

Elevation: 720

Station Type: Vantage Pro2

High Low Average
Temperature 49.0°F9.4°C 34.7°F1.5°C 41.0°F5.0°C
Dew Point 37.9°F3.3°C 28.6°F-1.9°C 33.7°F0.9°C
Winds 25.0 mph 40.2 kmh Calm Calm 5.0 mph WSW8.0 kmh WSW
Wind Gusts 26.0 mph41.8 kmh -- 9.0 mph14.5 kmh
Humidity 86% 62% 76%
Pressure 30.28 in1025.4 mb 29.77 in1008.1 mb -
Precipitation 0.00 in0.0 mm - -
Hour Temp Dew Point Humidity Winds Wind Gusts Pressure Precip Precip Rate Daily Precip Total
12:00 AM 50.4°F10.2°C 36.6°F2.6°C 59% 10.0 mph W16.1 kmh W 18.0 mph29.0 kmh 29.76 in1007.8 mb 0.00 in0.0 mm 0.00 in0.0 mm 0.00 in0.0 mm
12:05 AM 50.3°F10.2°C 37.0°F2.8°C 60% 13.0 mph SW20.9 kmh SW 19.0 mph30.6 kmh 29.76 in1007.8 mb 0.00 in0.0 mm 0.00 in0.0 mm 0.00 in0.0 mm
12:10 AM 50.3°F10.2°C 36.5°F2.5°C 59% 9.0 mph SW14.5 kmh SW 21.0 mph33.8 kmh 29.76 in1007.8 mb 0.00 in0.0 mm 0.00 in0.0 mm 0.00 in0.0 mm
12:15 AM 50.1°F10.1°C 36.8°F2.7°C 60% 8.0 mph WSW12.9 kmh WSW 14.0 mph22.5 kmh 29.76 in1007.8 mb 0.00 in0.0 mm 0.00 in0.0 mm 0.00 in0.0 mm
12:20 AM 50.1°F10.1°C 36.8°F2.7°C 60% 16.0 mph WSW25.7 kmh WSW 16.0 mph25.7 kmh 29.77 in1008.1 mb 0.00 in0.0 mm 0.00 in0.0 mm 0.00 in0.0 mm
12:25 AM 49.9°F9.9°C 37.0°F2.8°C 61% 14.0 mph SW22.5 kmh SW 14.0 mph22.5 kmh 29.77 in1008.1 mb 0.00 in0.0 mm 0.00 in0.0 mm 0.00 in0.0 mm
12:30 AM 49.8°F9.9°C 36.9°F2.7°C 61% 6.0 mph SW9.7 kmh SW 11.0 mph17.7 kmh 29.77 in1008.1 mb 0.00 in0.0 mm 0.00 in0.0 mm 0.00 in0.0 mm
12:35 AM 49.9°F9.9°C 36.6°F2.6°C 60% 7.0 mph SW11.3 kmh SW 15.0 mph24.1 kmh 29.77 in1008.1 mb 0.00 in0.0 mm 0.00 in0.0 mm 0.00 in0.0 mm
12:40 AM 49.7°F9.8°C 36.8°F2.7°C 61% 9.0 mph WSW14.5 kmh WSW 10.0 mph16.1 kmh 29.77 in1008.1 mb 0.00 in0.0 mm 0.00 in0.0 mm 0.00 in0.0 mm
12:45 AM 49.6°F9.8°C 36.7°F2.6°C 61% 16.0 mph WSW25.7 kmh WSW 16.0 mph25.7 kmh 29.77 in1008.1 mb 0.00 in0.0 mm 0.00 in0.0 mm 0.00 in0.0 mm
12:50 AM 49.5°F9.7°C 37.0°F2.8°C 62% 9.0 mph SW14.5 kmh SW 12.0 mph19.3 kmh 29.77 in1008.1 mb 0.00 in0.0 mm 0.00 in0.0 mm 0.00 in0.0 mm
12:55 AM 49.4°F9.7°C 36.9°F2.7°C 62% 7.0 mph WSW11.3 kmh WSW 15.0 mph24.1 kmh 29.77 in1008.1 mb 0.00 in0.0 mm 0.00 in0.0 mm 0.00 in0.0 mm
12:59 AM 49.2°F9.6°C 36.8°F2.7°C 62% 4.0 mph W6.4 kmh W 8.0 mph12.9 kmh 29.77 in1008.1 mb 0.00 in0.0 mm 0.00 in0.0 mm 0.00 in0.0 mm
01:05 AM 48.9°F9.4°C 36.9°F2.7°C 63% 8.0 mph WSW12.9 kmh WSW 15.0 mph24.1 kmh 29.78 in1008.5 mb 0.00 in0.0 mm 0.00 in0.0 mm 0.00 in0.0 mm
01:10 AM 49.0°F9.4°C 36.6°F2.6°C 62% 6.0 mph SW9.7 kmh SW 12.0 mph19.3 kmh 29.77 in1008.1 mb 0.00 in0.0 mm 0.00 in0.0 mm 0.00 in0.0 mm
01:15 AM 49.0°F9.4°C 37.0°F2.8°C 63% 7.0 mph W11.3 kmh W 16.0 mph25.7 kmh 29.77 in1008.1 mb 0.00 in0.0 mm 0.00 in0.0 mm 0.00 in0.0 mm
01:20 AM 48.8°F9.3°C 36.8°F2.7°C 63% 4.0 mph W6.4 kmh W 8.0 mph12.9 kmh 29.78 in1008.5 mb 0.00 in0.0 mm 0.00 in0.0 mm 0.00 in0.0 mm
01:25 AM 48.7°F9.3°C 37.1°F2.8°C 64% 6.0 mph SW9.7 kmh SW 8.0 mph12.9 kmh 29.78 in1008.5 mb 0.00 in0.0 mm 0.00 in0.0 mm 0.00 in0.0 mm
01:30 AM 49.0°F9.4°C 37.0°F2.8°C 63% 7.0 mph W11.3 kmh W 20.0 mph32.2 kmh 29.78 in1008.5 mb 0.00 in0.0 mm 0.00 in0.0 mm 0.00 in0.0 mm
01:35 AM 48.9°F9.4°C 36.9°F2.7°C 63% 8.0 mph SW12.9 kmh SW 9.0 mph14.5 kmh 29.78 in1008.5 mb 0.00 in0.0 mm 0.00 in0.0 mm 0.00 in0.0 mm
01:40 AM 48.7°F9.3°C 36.7°F2.6°C 63% 9.0 mph WSW14.5 kmh WSW 11.0 mph17.7 kmh 29.78 in1008.5 mb 0.00 in0.0 mm 0.00 in0.0 mm 0.00 in0.0 mm
01:45 AM 48.6°F9.2°C 36.6°F2.6°C 63% 16.0 mph SW25.7 kmh SW 19.0 mph30.6 kmh 29.78 in1008.5 mb 0.00 in0.0 mm 0.00 in0.0 mm 0.00 in0.0 mm
01:50 AM 48.7°F9.3°C 36.7°F2.6°C 63% 25.0 mph SW40.2 kmh SW 25.0 mph40.2 kmh 29.78 in1008.5 mb 0.01 in0.3 mm 0.12 in3.0 mm 0.01 in0.3 mm
01:55 AM 48.7°F9.3°C 36.3°F2.4°C 62% 11.0 mph WSW17.7 kmh WSW 25.0 mph40.2 kmh 29.79 in1008.8 mb 0.01 in0.3 mm 0.00 in0.0 mm 0.01 in0.3 mm
02:00 AM 48.6°F9.2°C 36.2°F2.3°C 62% 9.0 mph SSW14.5 kmh SSW 18.0 mph29.0 kmh 29.78 in1008.5 mb 0.01 in0.3 mm 0.00 in0.0 mm 0.01 in0.3 mm
02:05 AM 48.6°F9.2°C 36.2°F2.3°C 62% 14.0 mph W22.5 kmh W 21.0 mph33.8 kmh 29.78 in1008.5 mb 0.01 in0.3 mm 0.00 in0.0 mm 0.01 in0.3 mm
02:10 AM 48.5°F9.2°C 36.5°F2.5°C 63% 9.0 mph WSW14.5 kmh WSW 24.0 mph38.6 kmh 29.79 in1008.8 mb 0.01 in0.3 mm 0.00 in0.0 mm 0.01 in0.3 mm
02:15 AM 48.4°F9.1°C 36.4°F2.4°C 63% 15.0 mph SW24.1 kmh SW 16.0 mph25.7 kmh 29.79 in1008.8 mb 0.01 in0.3 mm 0.00 in0.0 mm 0.01 in0.3 mm
02:20 AM 48.3°F9.1°C 36.3°F2.4°C 63% 19.0 mph WSW30.6 kmh WSW 19.0 mph30.6 kmh 29.80 in1009.1 mb 0.01 in0.3 mm 0.00 in0.0 mm 0.01 in0.3 mm
02:25 AM 48.2°F9.0°C 36.2°F2.3°C 63% 8.0 mph SW12.9 kmh SW 26.0 mph41.8 kmh 29.79 in1008.8 mb 0.01 in0.3 mm 0.00 in0.0 mm 0.01 in0.3 mm
02:29 AM 48.1°F8.9°C 36.5°F2.5°C 64% 10.0 mph SW16.1 kmh SW 18.0 mph29.0 kmh 29.79 in1008.8 mb 0.01 in0.3 mm 0.00 in0.0 mm 0.01 in0.3 mm
02:35 AM 48.0°F8.9°C 36.4°F2.4°C 64% 4.0 mph SW6.4 kmh SW 9.0 mph14.5 kmh 29.79 in1008.8 mb 0.01 in0.3 mm 0.00 in0.0 mm 0.01 in0.3 mm
02:40 AM 47.9°F8.8°C 36.3°F2.4°C 64% 4.0 mph WSW6.4 kmh WSW 17.0 mph27.4 kmh 29.79 in1008.8 mb 0.01 in0.3 mm 0.00 in0.0 mm 0.01 in0.3 mm
02:44 AM 47.9°F8.8°C 36.3°F2.4°C 64% 7.0 mph W11.3 kmh W 17.0 mph27.4 kmh 29.80 in1009.1 mb 0.01 in0.3 mm 0.00 in0.0 mm 0.01 in0.3 mm
02:50 AM 47.9°F8.8°C 36.3°F2.4°C 64% 5.0 mph SW8.0 kmh SW 16.0 mph25.7 kmh 29.80 in1009.1 mb 0.01 in0.3 mm 0.00 in0.0 mm 0.01 in0.3 mm
02:55 AM 47.9°F8.8°C 36.3°F2.4°C 64% 13.0 mph WSW20.9 kmh WSW 14.0 mph22.5 kmh 29.80 in1009.1 mb 0.00 in0.0 mm 0.00 in0.0 mm 0.01 in0.3 mm
03:00 AM 47.9°F8.8°C 36.3°F2.4°C 64% 8.0 mph W12.9 kmh W 16.0 mph25.7 kmh 29.80 in1009.1 mb 0.00 in0.0 mm 0.00 in0.0 mm 0.01 in0.3 mm
03:05 AM 47.9°F8.8°C 36.3°F2.4°C 64% 6.0 mph W9.7 kmh W 19.0 mph30.6 kmh 29.80 in1009.1 mb 0.00 in0.0 mm 0.00 in0.0 mm 0.01 in0.3 mm
03:09 AM 47.8°F8.8°C 36.2°F2.3°C 64% 7.0 mph W11.3 kmh W 13.0 mph20.9 kmh 29.80 in1009.1 mb 0.00 in0.0 mm 0.00 in0.0 mm 0.01 in0.3 mm
03:15 AM 47.7°F8.7°C 36.1°F2.3°C 64% 10.0 mph SW16.1 kmh SW 16.0 mph25.7 kmh 29.80 in1009.1 mb 0.00 in0.0 mm 0.00 in0.0 mm 0.01 in0.3 mm
03:20 AM 47.7°F8.7°C 36.5°F2.5°C 65% 6.0 mph SW9.7 kmh SW 9.0 mph14.5 kmh 29.80 in1009.1 mb 0.00 in0.0 mm 0.00 in0.0 mm 0.01 in0.3 mm
03:25 AM 47.6°F8.7°C 36.4°F2.4°C 65% 7.0 mph SSW11.3 kmh SSW 10.0 mph16.1 kmh 29.80 in1009.1 mb 0.00 in0.0 mm 0.00 in0.0 mm 0.01 in0.3 mm
03:29 AM 47.5°F8.6°C 36.3°F2.4°C 65% 4.0 mph WSW6.4 kmh WSW 12.0 mph19.3 kmh 29.80 in1009.1 mb 0.00 in0.0 mm 0.00 in0.0 mm 0.01 in0.3 mm
03:34 AM 47.6°F8.7°C 36.4°F2.4°C 65% 6.0 mph SW9.7 kmh SW 17.0 mph27.4 kmh 29.80 in1009.1 mb 0.00 in0.0 mm 0.00 in0.0 mm 0.01 in0.3 mm
03:40 AM 47.6°F8.7°C 36.4°F2.4°C 65% 4.0 mph W6.4 kmh W 19.0 mph30.6 kmh 29.80 in1009.1 mb 0.00 in0.0 mm 0.00 in0.0 mm 0.01 in0.3 mm
03:44 AM 47.6°F8.7°C 36.4°F2.4°C 65% 6.0 mph SW9.7 kmh SW 23.0 mph37.0 kmh 29.81 in1009.5 mb 0.00 in0.0 mm 0.00 in0.0 mm 0.01 in0.3 mm
03:49 AM 47.5°F8.6°C 36.3°F2.4°C 65% 12.0 mph SW19.3 kmh SW 13.0 mph20.9 kmh 29.81 in1009.5 mb 0.00 in0.0 mm 0.00 in0.0 mm 0.01 in0.3 mm
03:54 AM 47.4°F8.6°C 36.2°F2.3°C 65% 13.0 mph SW20.9 kmh SW 14.0 mph22.5 kmh 29.81 in1009.5 mb 0.00 in0.0 mm 0.00 in0.0 mm 0.01 in0.3 mm
04:00 AM 47.3°F8.5°C 36.5°F2.5°C 66% 13.0 mph SW20.9 kmh SW 13.0 mph20.9 kmh 29.81 in1009.5 mb 0.00 in0.0 mm 0.00 in0.0 mm 0.01 in0.3 mm
04:05 AM 47.3°F8.5°C 36.5°F2.5°C 66% 4.0 mph WNW6.4 kmh WNW 12.0 mph19.3 kmh 29.81 in1009.5 mb 0.00 in0.0 mm 0.00 in0.0 mm 0.01 in0.3 mm
04:10 AM 47.2°F8.4°C 36.4°F2.4°C 66% 4.0 mph WNW6.4 kmh WNW 18.0 mph29.0 kmh 29.81 in1009.5 mb 0.00 in0.0 mm 0.00 in0.0 mm 0.01 in0.3 mm
04:15 AM 47.1°F8.4°C 36.3°F2.4°C 66% 14.0 mph SW22.5 kmh SW 20.0 mph32.2 kmh 29.82 in1009.8 mb 0.00 in0.0 mm 0.00 in0.0 mm 0.01 in0.3 mm
04:20 AM 47.0°F8.3°C 36.3°F2.4°C 66% 13.0 mph WSW20.9 kmh WSW 18.0 mph29.0 kmh 29.82 in1009.8 mb 0.00 in0.0 mm 0.00 in0.0 mm 0.01 in0.3 mm
04:25 AM 46.9°F8.3°C 36.2°F2.3°C 66% 10.0 mph SSW16.1 kmh SSW 12.0 mph19.3 kmh 29.81 in1009.5 mb 0.00 in0.0 mm 0.00 in0.0 mm 0.01 in0.3 mm
04:30 AM 46.8°F8.2°C 36.4°F2.4°C 67% 5.0 mph WSW8.0 kmh WSW 10.0 mph16.1 kmh 29.81 in1009.5 mb 0.00 in0.0 mm 0.00 in0.0 mm 0.01 in0.3 mm
04:35 AM 46.8°F8.2°C 36.8°F2.7°C 68% 8.0 mph SW12.9 kmh SW 13.0 mph20.9 kmh 29.82 in1009.8 mb 0.00 in0.0 mm 0.00 in0.0 mm 0.01 in0.3 mm
04:40 AM 46.6°F8.1°C 36.6°F2.6°C 68% 13.0 mph SW20.9 kmh SW 14.0 mph22.5 kmh 29.82 in1009.8 mb 0.00 in0.0 mm 0.00 in0.0 mm 0.01 in0.3 mm
04:45 AM 46.6°F8.1°C 36.6°F2.6°C 68% 4.0 mph SW6.4 kmh SW 12.0 mph19.3 kmh 29.82 in1009.8 mb 0.00 in0.0 mm 0.00 in0.0 mm 0.01 in0.3 mm
04:50 AM 46.5°F8.1°C 36.2°F2.3°C 67% 9.0 mph W14.5 kmh W 11.0 mph17.7 kmh 29.82 in1009.8 mb 0.00 in0.0 mm 0.00 in0.0 mm 0.01 in0.3 mm
04:55 AM 46.5°F8.1°C 36.2°F2.3°C 67% 6.0 mph WSW9.7 kmh WSW 15.0 mph24.1 kmh 29.82 in1009.8 mb 0.00 in0.0 mm 0.00 in0.0 mm 0.01 in0.3 mm
04:59 AM 46.4°F8.0°C 36.1°F2.3°C 67% 6.0 mph SW9.7 kmh SW 8.0 mph12.9 kmh 29.82 in1009.8 mb 0.00 in0.0 mm 0.00 in0.0 mm 0.01 in0.3 mm
05:05 AM 46.3°F7.9°C 36.0°F2.2°C 67% 6.0 mph W9.7 kmh W 16.0 mph25.7 kmh 29.82 in1009.8 mb 0.00 in0.0 mm 0.00 in0.0 mm 0.01 in0.3 mm
05:10 AM 46.2°F7.9°C 36.2°F2.3°C 68% 5.0 mph SW8.0 kmh SW 12.0 mph19.3 kmh 29.83 in1010.2 mb 0.00 in0.0 mm 0.00 in0.0 mm 0.01 in0.3 mm
05:15 AM 46.2°F7.9°C 36.2°F2.3°C 68% 11.0 mph SW17.7 kmh SW 14.0 mph22.5 kmh 29.83 in1010.2 mb 0.00 in0.0 mm 0.00 in0.0 mm 0.01 in0.3 mm
05:20 AM 46.1°F7.8°C 36.1°F2.3°C 68% 7.0 mph SW11.3 kmh SW 17.0 mph27.4 kmh 29.83 in1010.2 mb 0.00 in0.0 mm 0.00 in0.0 mm 0.01 in0.3 mm
05:25 AM 46.0°F7.8°C 36.1°F2.3°C 68% 12.0 mph NW19.3 kmh NW 12.0 mph19.3 kmh 29.83 in1010.2 mb 0.00 in0.0 mm 0.00 in0.0 mm 0.01 in0.3 mm
05:29 AM 46.0°F7.8°C 36.1°F2.3°C 68% 4.0 mph WSW6.4 kmh WSW 8.0 mph12.9 kmh 29.83 in1010.2 mb 0.00 in0.0 mm 0.00 in0.0 mm 0.01 in0.3 mm
05:35 AM 45.9°F7.7°C 36.0°F2.2°C 68% 5.0 mph SW8.0 kmh SW 10.0 mph16.1 kmh 29.83 in1010.2 mb 0.00 in0.0 mm 0.00 in0.0 mm 0.01 in0.3 mm
05:40 AM 45.9°F7.7°C 36.3°F2.4°C 69% 3.0 mph W4.8 kmh W 12.0 mph19.3 kmh 29.83 in1010.2 mb 0.00 in0.0 mm 0.00 in0.0 mm 0.01 in0.3 mm
05:45 AM 45.9°F7.7°C 36.3°F2.4°C 69% 3.0 mph WSW4.8 kmh WSW 9.0 mph14.5 kmh 29.83 in1010.2 mb 0.00 in0.0 mm 0.00 in0.0 mm 0.01 in0.3 mm
05:50 AM 45.7°F7.6°C 36.5°F2.5°C 70% 9.0 mph SW14.5 kmh SW 10.0 mph16.1 kmh 29.83 in1010.2 mb 0.00 in0.0 mm 0.00 in0.0 mm 0.01 in0.3 mm
05:55 AM 45.7°F7.6°C 36.1°F2.3°C 69% 13.0 mph WSW20.9 kmh WSW 13.0 mph20.9 kmh 29.83 in1010.2 mb 0.00 in0.0 mm 0.00 in0.0 mm 0.01 in0.3 mm
06:00 AM 45.6°F7.6°C 36.0°F2.2°C 69% 7.0 mph SW11.3 kmh SW 14.0 mph22.5 kmh 29.84 in1010.5 mb 0.00 in0.0 mm 0.00 in0.0 mm 0.01 in0.3 mm
06:05 AM 45.6°F7.6°C 36.0°F2.2°C 69% 9.0 mph SW14.5 kmh SW 18.0 mph29.0 kmh 29.84 in1010.5 mb 0.00 in0.0 mm 0.00 in0.0 mm 0.01 in0.3 mm
06:10 AM 45.5°F7.5°C 36.3°F2.4°C 70% 11.0 mph WSW17.7 kmh WSW 17.0 mph27.4 kmh 29.84 in1010.5 mb 0.00 in0.0 mm 0.00 in0.0 mm 0.01 in0.3 mm
06:15 AM 45.5°F7.5°C 36.3°F2.4°C 70% 8.0 mph WNW12.9 kmh WNW 10.0 mph16.1 kmh 29.84 in1010.5 mb 0.00 in0.0 mm 0.00 in0.0 mm 0.01 in0.3 mm
06:20 AM 45.4°F7.4°C 36.2°F2.3°C 70% 5.0 mph WSW8.0 kmh WSW 12.0 mph19.3 kmh 29.85 in1010.8 mb 0.00 in0.0 mm 0.00 in0.0 mm 0.01 in0.3 mm
06:25 AM 45.4°F7.4°C 36.6°F2.6°C 71% 6.0 mph W9.7 kmh W 9.0 mph14.5 kmh 29.85 in1010.8 mb 0.00 in0.0 mm 0.00 in0.0 mm 0.01 in0.3 mm
06:30 AM 45.3°F7.4°C 36.8°F2.7°C 72% 1.0 mph WSW1.6 kmh WSW 11.0 mph17.7 kmh 29.85 in1010.8 mb 0.00 in0.0 mm 0.00 in0.0 mm 0.01 in0.3 mm
06:35 AM 45.2°F7.3°C 36.7°F2.6°C 72% 9.0 mph SW14.5 kmh SW 14.0 mph22.5 kmh 29.85 in1010.8 mb 0.00 in0.0 mm 0.00 in0.0 mm 0.01 in0.3 mm
06:40 AM 45.1°F7.3°C 36.6°F2.6°C 72% 6.0 mph W9.7 kmh W 13.0 mph20.9 kmh 29.85 in1010.8 mb 0.00 in0.0 mm 0.00 in0.0 mm 0.01 in0.3 mm
06:44 AM 45.0°F7.2°C 36.9°F2.7°C 73% 8.0 mph WNW12.9 kmh WNW 12.0 mph19.3 kmh 29.85 in1010.8 mb 0.00 in0.0 mm 0.00 in0.0 mm 0.01 in0.3 mm
06:50 AM 44.7°F7.1°C 36.6°F2.6°C 73% 10.0 mph NW16.1 kmh NW 10.0 mph16.1 kmh 29.86 in1011.2 mb 0.00 in0.0 mm 0.00 in0.0 mm 0.01 in0.3 mm
06:55 AM 44.6°F7.0°C 36.8°F2.7°C 74% 2.0 mph W3.2 kmh W 10.0 mph16.1 kmh 29.86 in1011.2 mb 0.00 in0.0 mm 0.00 in0.0 mm 0.01 in0.3 mm
07:00 AM 44.4°F6.9°C 37.0°F2.8°C 75% 7.0 mph WNW11.3 kmh WNW 9.0 mph14.5 kmh 29.86 in1011.2 mb 0.00 in0.0 mm 0.00 in0.0 mm 0.01 in0.3 mm
07:04 AM 44.3°F6.8°C 37.2°F2.9°C 76% 3.0 mph WSW4.8 kmh WSW 11.0 mph17.7 kmh 29.86 in1011.2 mb 0.00 in0.0 mm 0.00 in0.0 mm 0.01 in0.3 mm
07:10 AM 44.0°F6.7°C 37.3°F2.9°C 77% 3.0 mph WSW4.8 kmh WSW 15.0 mph24.1 kmh 29.86 in1011.2 mb 0.00 in0.0 mm 0.00 in0.0 mm 0.01 in0.3 mm
07:15 AM 43.7°F6.5°C 37.6°F3.1°C 79% 7.0 mph SW11.3 kmh SW 9.0 mph14.5 kmh 29.87 in1011.5 mb 0.00 in0.0 mm 0.00 in0.0 mm 0.01 in0.3 mm
07:19 AM 43.4°F6.3°C 37.7°F3.2°C 80% 4.0 mph W6.4 kmh W 11.0 mph17.7 kmh 29.87 in1011.5 mb 0.00 in0.0 mm 0.00 in0.0 mm 0.01 in0.3 mm
07:24 AM 43.1°F6.2°C 37.7°F3.2°C 81% 12.0 mph SW19.3 kmh SW 12.0 mph19.3 kmh 29.87 in1011.5 mb 0.00 in0.0 mm 0.00 in0.0 mm 0.01 in0.3 mm
07:30 AM 42.9°F6.1°C 37.8°F3.2°C 82% 7.0 mph SW11.3 kmh SW 9.0 mph14.5 kmh 29.87 in1011.5 mb 0.00 in0.0 mm 0.00 in0.0 mm 0.01 in0.3 mm
07:35 AM 42.8°F6.0°C 37.7°F3.2°C 82% 1.0 mph SW1.6 kmh SW 9.0 mph14.5 kmh 29.87 in1011.5 mb 0.00 in0.0 mm 0.00 in0.0 mm 0.01 in0.3 mm
07:40 AM 42.8°F6.0°C 37.7°F3.2°C 82% 5.0 mph SW8.0 kmh SW 8.0 mph12.9 kmh 29.88 in1011.9 mb 0.00 in0.0 mm 0.00 in0.0 mm 0.01 in0.3 mm
07:45 AM 42.8°F6.0°C 37.7°F3.2°C 82% 2.0 mph WSW3.2 kmh WSW 4.0 mph6.4 kmh 29.88 in1011.9 mb 0.00 in0.0 mm 0.00 in0.0 mm 0.01 in0.3 mm
07:50 AM 42.7°F5.9°C 37.9°F3.3°C 83% 4.0 mph WSW6.4 kmh WSW 11.0 mph17.7 kmh 29.88 in1011.9 mb 0.01 in0.3 mm 0.12 in3.0 mm 0.02 in0.5 mm
07:54 AM 42.7°F5.9°C 37.6°F3.1°C 82% 3.0 mph SW4.8 kmh SW 8.0 mph12.9 kmh 29.88 in1011.9 mb 0.01 in0.3 mm 0.00 in0.0 mm 0.02 in0.5 mm
08:00 AM 42.6°F5.9°C 37.5°F3.1°C 82% 6.0 mph WNW9.7 kmh WNW 8.0 mph12.9 kmh 29.89 in1012.2 mb 0.01 in0.3 mm 0.00 in0.0 mm 0.02 in0.5 mm
08:05 AM 42.5°F5.8°C 37.4°F3.0°C 82% 2.0 mph WNW3.2 kmh WNW 9.0 mph14.5 kmh 29.89 in1012.2 mb 0.01 in0.3 mm 0.00 in0.0 mm 0.02 in0.5 mm
08:10 AM 42.5°F5.8°C 37.1°F2.8°C 81% 7.0 mph SW11.3 kmh SW 13.0 mph20.9 kmh 29.89 in1012.2 mb 0.01 in0.3 mm 0.00 in0.0 mm 0.02 in0.5 mm
08:14 AM 42.5°F5.8°C 37.1°F2.8°C 81% 6.0 mph SW9.7 kmh SW 14.0 mph22.5 kmh 29.89 in1012.2 mb 0.01 in0.3 mm 0.00 in0.0 mm 0.02 in0.5 mm
08:19 AM 42.5°F5.8°C 37.1°F2.8°C 81% 7.0 mph SW11.3 kmh SW 13.0 mph20.9 kmh 29.89 in1012.2 mb 0.01 in0.3 mm 0.00 in0.0 mm 0.02 in0.5 mm
08:24 AM 42.5°F5.8°C 37.1°F2.8°C 81% 4.0 mph WSW6.4 kmh WSW 8.0 mph12.9 kmh 29.89 in1012.2 mb 0.01 in0.3 mm 0.00 in0.0 mm 0.02 in0.5 mm
08:30 AM 42.3°F5.7°C 37.2°F2.9°C 82% 7.0 mph SW11.3 kmh SW 9.0 mph14.5 kmh 29.90 in1012.5 mb 0.01 in0.3 mm 0.00 in0.0 mm 0.02 in0.5 mm
08:35 AM 42.2°F5.7°C 37.1°F2.8°C 82% 2.0 mph WSW3.2 kmh WSW 8.0 mph12.9 kmh 29.90 in1012.5 mb 0.01 in0.3 mm 0.00 in0.0 mm 0.02 in0.5 mm
08:40 AM 42.1°F5.6°C 37.3°F2.9°C 83% 8.0 mph W12.9 kmh W 11.0 mph17.7 kmh 29.90 in1012.5 mb 0.01 in0.3 mm 0.00 in0.0 mm 0.02 in0.5 mm
08:45 AM 41.9°F5.5°C 37.4°F3.0°C 84% 3.0 mph W4.8 kmh W 8.0 mph12.9 kmh 29.90 in1012.5 mb 0.01 in0.3 mm 0.00 in0.0 mm 0.02 in0.5 mm
08:50 AM 41.6°F5.3°C 37.1°F2.8°C 84% 4.0 mph W6.4 kmh W 8.0 mph12.9 kmh 29.91 in1012.9 mb 0.00 in0.0 mm 0.00 in0.0 mm 0.02 in0.5 mm
08:55 AM 41.4°F5.2°C 37.2°F2.9°C 85% 6.0 mph SW9.7 kmh SW 11.0 mph17.7 kmh 29.91 in1012.9 mb 0.00 in0.0 mm 0.00 in0.0 mm 0.02 in0.5 mm
09:00 AM 41.3°F5.2°C 37.1°F2.8°C 85% 8.0 mph WSW12.9 kmh WSW 8.0 mph12.9 kmh 29.91 in1012.9 mb 0.00 in0.0 mm 0.00 in0.0 mm 0.02 in0.5 mm
09:04 AM 41.3°F5.2°C 37.1°F2.8°C 85% 5.0 mph WSW8.0 kmh WSW 12.0 mph19.3 kmh 29.91 in1012.9 mb 0.00 in0.0 mm 0.00 in0.0 mm 0.02 in0.5 mm
09:10 AM 41.2°F5.1°C 37.0°F2.8°C 85% 8.0 mph W12.9 kmh W 12.0 mph19.3 kmh 29.91 in1012.9 mb 0.00 in0.0 mm 0.00 in0.0 mm 0.02 in0.5 mm
09:15 AM 41.1°F5.1°C 36.9°F2.7°C 85% 11.0 mph SW17.7 kmh SW 13.0 mph20.9 kmh 29.92 in1013.2 mb 0.00 in0.0 mm 0.00 in0.0 mm 0.02 in0.5 mm
09:20 AM 41.0°F5.0°C 37.1°F2.8°C 86% 7.0 mph W11.3 kmh W 13.0 mph20.9 kmh 29.92 in1013.2 mb 0.00 in0.0 mm 0.00 in0.0 mm 0.02 in0.5 mm
09:25 AM 41.1°F5.1°C 37.2°F2.9°C 86% 7.0 mph SW11.3 kmh SW 16.0 mph25.7 kmh 29.92 in1013.2 mb 0.00 in0.0 mm 0.00 in0.0 mm 0.02 in0.5 mm
09:30 AM 41.2°F5.1°C 37.3°F2.9°C 86% 14.0 mph SW22.5 kmh SW 14.0 mph22.5 kmh 29.92 in1013.2 mb 0.00 in0.0 mm 0.00 in0.0 mm 0.02 in0.5 mm
09:35 AM 41.3°F5.2°C 37.1°F2.8°C 85% 11.0 mph SW17.7 kmh SW 11.0 mph17.7 kmh 29.92 in1013.2 mb 0.00 in0.0 mm 0.00 in0.0 mm 0.02 in0.5 mm
09:39 AM 41.5°F5.3°C 36.7°F2.6°C 83% 10.0 mph SW16.1 kmh SW 13.0 mph20.9 kmh 29.93 in1013.5 mb 0.00 in0.0 mm 0.00 in0.0 mm 0.02 in0.5 mm
09:45 AM 41.5°F5.3°C 36.7°F2.6°C 83% 8.0 mph SW12.9 kmh SW 13.0 mph20.9 kmh 29.93 in1013.5 mb 0.00 in0.0 mm 0.00 in0.0 mm 0.02 in0.5 mm
09:50 AM 41.6°F5.3°C 36.5°F2.5°C 82% 2.0 mph NW3.2 kmh NW 12.0 mph19.3 kmh 29.93 in1013.5 mb 0.00 in0.0 mm 0.00 in0.0 mm 0.02 in0.5 mm
09:55 AM 41.6°F5.3°C 36.5°F2.5°C 82% 4.0 mph SW6.4 kmh SW 9.0 mph14.5 kmh 29.93 in1013.5 mb 0.00 in0.0 mm 0.00 in0.0 mm 0.02 in0.5 mm
10:00 AM 41.5°F5.3°C 36.4°F2.4°C 82% 7.0 mph WSW11.3 kmh WSW 12.0 mph19.3 kmh 29.93 in1013.5 mb 0.00 in0.0 mm 0.00 in0.0 mm 0.02 in0.5 mm
10:05 AM 41.3°F5.2°C 36.5°F2.5°C 83% 5.0 mph WSW8.0 kmh WSW 8.0 mph12.9 kmh 29.93 in1013.5 mb 0.00 in0.0 mm 0.00 in0.0 mm 0.02 in0.5 mm
10:10 AM 41.1°F5.1°C 36.3°F2.4°C 83% 4.0 mph SW6.4 kmh SW 11.0 mph17.7 kmh 29.94 in1013.9 mb 0.00 in0.0 mm 0.00 in0.0 mm 0.02 in0.5 mm
10:14 AM 41.3°F5.2°C 36.2°F2.3°C 82% 3.0 mph WSW4.8 kmh WSW 9.0 mph14.5 kmh 29.94 in1013.9 mb 0.00 in0.0 mm 0.00 in0.0 mm 0.02 in0.5 mm
10:20 AM 41.5°F5.3°C 36.1°F2.3°C 81% 8.0 mph W12.9 kmh W 8.0 mph12.9 kmh 29.94 in1013.9 mb 0.00 in0.0 mm 0.00 in0.0 mm 0.02 in0.5 mm
10:25 AM 41.4°F5.2°C 36.0°F2.2°C 81% 4.0 mph W6.4 kmh W 12.0 mph19.3 kmh 29.94 in1013.9 mb 0.00 in0.0 mm 0.00 in0.0 mm 0.02 in0.5 mm
10:29 AM 41.2°F5.1°C 36.1°F2.3°C 82% 7.0 mph WNW11.3 kmh WNW 15.0 mph24.1 kmh 29.95 in1014.2 mb 0.00 in0.0 mm 0.00 in0.0 mm 0.02 in0.5 mm
10:35 AM 40.9°F4.9°C 35.8°F2.1°C 82% 12.0 mph WSW19.3 kmh WSW 12.0 mph19.3 kmh 29.95 in1014.2 mb 0.00 in0.0 mm 0.00 in0.0 mm 0.02 in0.5 mm
03:10 PM 38.7°F3.7°C 32.8°F0.4°C 79% 7.0 mph NW11.3 kmh NW 13.0 mph20.9 kmh 30.06 in1017.9 mb 0.00 in0.0 mm 0.00 in0.0 mm 0.02 in0.5 mm
03:15 PM 38.6°F3.7°C 32.4°F0.2°C 78% 7.0 mph WSW11.3 kmh WSW 9.0 mph14.5 kmh 30.06 in1017.9 mb 0.00 in0.0 mm 0.00 in0.0 mm 0.02 in0.5 mm
03:20 PM 38.6°F3.7°C 32.7°F0.4°C 79% 10.0 mph NW16.1 kmh NW 10.0 mph16.1 kmh 30.07 in1018.3 mb 0.00 in0.0 mm 0.00 in0.0 mm 0.02 in0.5 mm
03:25 PM 38.5°F3.6°C 32.6°F0.3°C 79% 7.0 mph W11.3 kmh W 7.0 mph11.3 kmh 30.07 in1018.3 mb 0.00 in0.0 mm 0.00 in0.0 mm 0.02 in0.5 mm
03:30 PM 38.4°F3.6°C 32.5°F0.3°C 79% 7.0 mph NW11.3 kmh NW 8.0 mph12.9 kmh 30.06 in1017.9 mb 0.00 in0.0 mm 0.00 in0.0 mm 0.02 in0.5 mm
03:34 PM 38.3°F3.5°C 32.4°F0.2°C 79% 8.0 mph WSW12.9 kmh WSW 16.0 mph25.7 kmh 30.06 in1017.9 mb 0.00 in0.0 mm 0.00 in0.0 mm 0.02 in0.5 mm
03:40 PM 38.2°F3.4°C 32.6°F0.3°C 80% 5.0 mph WNW8.0 kmh WNW 11.0 mph17.7 kmh 30.07 in1018.3 mb 0.00 in0.0 mm 0.00 in0.0 mm 0.02 in0.5 mm
03:45 PM 38.1°F3.4°C 32.5°F0.3°C 80% 9.0 mph NW14.5 kmh NW 12.0 mph19.3 kmh 30.07 in1018.3 mb 0.00 in0.0 mm 0.00 in0.0 mm 0.02 in0.5 mm
03:50 PM 38.0°F3.3°C 32.4°F0.2°C 80% 4.0 mph W6.4 kmh W 8.0 mph12.9 kmh 30.07 in1018.3 mb 0.00 in0.0 mm 0.00 in0.0 mm 0.02 in0.5 mm
03:55 PM 38.0°F3.3°C 32.7°F0.4°C 81% 7.0 mph SW11.3 kmh SW 7.0 mph11.3 kmh 30.07 in1018.3 mb 0.00 in0.0 mm 0.00 in0.0 mm 0.02 in0.5 mm
04:00 PM 38.0°F3.3°C 32.7°F0.4°C 81% 7.0 mph W11.3 kmh W 8.0 mph12.9 kmh 30.07 in1018.3 mb 0.00 in0.0 mm 0.00 in0.0 mm 0.02 in0.5 mm
04:05 PM 37.9°F3.3°C 32.6°F0.3°C 81% 4.0 mph WNW6.4 kmh WNW 4.0 mph6.4 kmh 30.07 in1018.3 mb 0.00 in0.0 mm 0.00 in0.0 mm 0.02 in0.5 mm
04:10 PM 38.0°F3.3°C 33.0°F0.6°C 82% 4.0 mph NW6.4 kmh NW 5.0 mph8.0 kmh 30.08 in1018.6 mb 0.00 in0.0 mm 0.00 in0.0 mm 0.02 in0.5 mm
04:15 PM 37.9°F3.3°C 32.6°F0.3°C 81% 4.0 mph SW6.4 kmh SW 5.0 mph8.0 kmh 30.07 in1018.3 mb 0.00 in0.0 mm 0.00 in0.0 mm 0.02 in0.5 mm
04:20 PM 37.9°F3.3°C 32.3°F0.2°C 80% 6.0 mph W9.7 kmh W 8.0 mph12.9 kmh 30.08 in1018.6 mb 0.00 in0.0 mm 0.00 in0.0 mm 0.02 in0.5 mm
04:25 PM 38.0°F3.3°C 32.1°F0.1°C 79% 4.0 mph WNW6.4 kmh WNW 11.0 mph17.7 kmh 30.08 in1018.6 mb 0.00 in0.0 mm 0.00 in0.0 mm 0.02 in0.5 mm
04:29 PM 38.2°F3.4°C 32.0°F0.0°C 78% 2.0 mph W3.2 kmh W 3.0 mph4.8 kmh 30.08 in1018.6 mb 0.00 in0.0 mm 0.00 in0.0 mm 0.02 in0.5 mm
04:35 PM 38.3°F3.5°C 31.7°F-0.2°C 77% 7.0 mph NW11.3 kmh NW 10.0 mph16.1 kmh 30.09 in1019.0 mb 0.00 in0.0 mm 0.00 in0.0 mm 0.02 in0.5 mm
04:40 PM 38.3°F3.5°C 31.7°F-0.2°C 77% 1.0 mph WNW1.6 kmh WNW 8.0 mph12.9 kmh 30.09 in1019.0 mb 0.00 in0.0 mm 0.00 in0.0 mm 0.02 in0.5 mm
04:44 PM 38.3°F3.5°C 31.7°F-0.2°C 77% 1.0 mph NW1.6 kmh NW 2.0 mph3.2 kmh 30.09 in1019.0 mb 0.00 in0.0 mm 0.00 in0.0 mm 0.02 in0.5 mm
04:49 PM 38.3°F3.5°C 32.1°F0.1°C 78% 7.0 mph W11.3 kmh W 8.0 mph12.9 kmh 30.10 in1019.3 mb 0.00 in0.0 mm 0.00 in0.0 mm 0.02 in0.5 mm
04:55 PM 38.1°F3.4°C 31.5°F-0.3°C 77% 8.0 mph WSW12.9 kmh WSW 8.0 mph12.9 kmh 30.10 in1019.3 mb 0.00 in0.0 mm 0.00 in0.0 mm 0.02 in0.5 mm
04:59 PM 38.0°F3.3°C 31.8°F-0.1°C 78% 6.0 mph W9.7 kmh W 6.0 mph9.7 kmh 30.10 in1019.3 mb 0.00 in0.0 mm 0.00 in0.0 mm 0.02 in0.5 mm
05:04 PM 37.9°F3.3°C 31.7°F-0.2°C 78% 14.0 mph WSW22.5 kmh WSW 14.0 mph22.5 kmh 30.11 in1019.6 mb 0.00 in0.0 mm 0.00 in0.0 mm 0.02 in0.5 mm
05:09 PM 37.8°F3.2°C 31.6°F-0.2°C 78% 4.0 mph WNW6.4 kmh WNW 7.0 mph11.3 kmh 30.11 in1019.6 mb 0.00 in0.0 mm 0.00 in0.0 mm 0.02 in0.5 mm
05:15 PM 37.7°F3.2°C 31.8°F-0.1°C 79% 8.0 mph NW12.9 kmh NW 8.0 mph12.9 kmh 30.11 in1019.6 mb 0.00 in0.0 mm 0.00 in0.0 mm 0.02 in0.5 mm
05:20 PM 37.7°F3.2°C 31.8°F-0.1°C 79% 8.0 mph NW12.9 kmh NW 8.0 mph12.9 kmh 30.11 in1019.6 mb 0.00 in0.0 mm 0.00 in0.0 mm 0.02 in0.5 mm
05:24 PM 37.7°F3.2°C 32.1°F0.1°C 80% 7.0 mph W11.3 kmh W 13.0 mph20.9 kmh 30.12 in1020.0 mb 0.00 in0.0 mm 0.00 in0.0 mm 0.02 in0.5 mm
05:30 PM 37.5°F3.1°C 32.2°F0.1°C 81% 13.0 mph S20.9 kmh S 13.0 mph20.9 kmh 30.12 in1020.0 mb 0.00 in0.0 mm 0.00 in0.0 mm 0.02 in0.5 mm
05:35 PM 37.4°F3.0°C 32.1°F0.1°C 81% 7.0 mph WSW11.3 kmh WSW 9.0 mph14.5 kmh 30.13 in1020.3 mb 0.00 in0.0 mm 0.00 in0.0 mm 0.02 in0.5 mm
05:40 PM 37.4°F3.0°C 32.1°F0.1°C 81% 10.0 mph SW16.1 kmh SW 18.0 mph29.0 kmh 30.13 in1020.3 mb 0.00 in0.0 mm 0.00 in0.0 mm 0.02 in0.5 mm
05:45 PM 37.4°F3.0°C 32.4°F0.2°C 82% 7.0 mph SW11.3 kmh SW 7.0 mph11.3 kmh 30.13 in1020.3 mb 0.00 in0.0 mm 0.00 in0.0 mm 0.02 in0.5 mm
05:50 PM 37.4°F3.0°C 32.4°F0.2°C 82% 5.0 mph SW8.0 kmh SW 8.0 mph12.9 kmh 30.13 in1020.3 mb 0.00 in0.0 mm 0.00 in0.0 mm 0.02 in0.5 mm
05:54 PM 37.3°F2.9°C 32.3°F0.2°C 82% 4.0 mph WSW6.4 kmh WSW 4.0 mph6.4 kmh 30.14 in1020.7 mb 0.00 in0.0 mm 0.00 in0.0 mm 0.02 in0.5 mm
05:59 PM 37.4°F3.0°C 32.4°F0.2°C 82% 4.0 mph WNW6.4 kmh WNW 9.0 mph14.5 kmh 30.14 in1020.7 mb 0.00 in0.0 mm 0.00 in0.0 mm 0.02 in0.5 mm
06:04 PM 37.5°F3.1°C 31.9°F-0.1°C 80% 9.0 mph WNW14.5 kmh WNW 12.0 mph19.3 kmh 30.14 in1020.7 mb 0.00 in0.0 mm 0.00 in0.0 mm 0.02 in0.5 mm
06:10 PM 37.6°F3.1°C 31.1°F-0.5°C 77% 9.0 mph NW14.5 kmh NW 9.0 mph14.5 kmh 30.15 in1021.0 mb 0.00 in0.0 mm 0.00 in0.0 mm 0.02 in0.5 mm
06:15 PM 37.7°F3.2°C 30.8°F-0.7°C 76% 8.0 mph W12.9 kmh W 9.0 mph14.5 kmh 30.15 in1021.0 mb 0.00 in0.0 mm 0.00 in0.0 mm 0.02 in0.5 mm
06:19 PM 37.7°F3.2°C 30.8°F-0.7°C 76% 5.0 mph NW8.0 kmh NW 8.0 mph12.9 kmh 30.15 in1021.0 mb 0.00 in0.0 mm 0.00 in0.0 mm 0.02 in0.5 mm
06:24 PM 37.7°F3.2°C 30.5°F-0.8°C 75% 2.0 mph W3.2 kmh W 2.0 mph3.2 kmh 30.15 in1021.0 mb 0.00 in0.0 mm 0.00 in0.0 mm 0.02 in0.5 mm
06:30 PM 37.7°F3.2°C 30.5°F-0.8°C 75% 7.0 mph WSW11.3 kmh WSW 7.0 mph11.3 kmh 30.15 in1021.0 mb 0.00 in0.0 mm 0.00 in0.0 mm 0.02 in0.5 mm
06:35 PM 37.7°F3.2°C 30.5°F-0.8°C 75% 5.0 mph WNW8.0 kmh WNW 7.0 mph11.3 kmh 30.15 in1021.0 mb 0.00 in0.0 mm 0.00 in0.0 mm 0.02 in0.5 mm
06:39 PM 37.7°F3.2°C 30.5°F-0.8°C 75% 6.0 mph WSW9.7 kmh WSW 6.0 mph9.7 kmh 30.15 in1021.0 mb 0.00 in0.0 mm 0.00 in0.0 mm 0.02 in0.5 mm
06:45 PM 37.7°F3.2°C 30.5°F-0.8°C 75% 3.0 mph NW4.8 kmh NW 3.0 mph4.8 kmh 30.16 in1021.3 mb 0.00 in0.0 mm 0.00 in0.0 mm 0.02 in0.5 mm
06:50 PM 37.7°F3.2°C 30.5°F-0.8°C 75% 8.0 mph WSW12.9 kmh WSW 8.0 mph12.9 kmh 30.16 in1021.3 mb 0.00 in0.0 mm 0.00 in0.0 mm 0.02 in0.5 mm
06:55 PM 37.7°F3.2°C 30.5°F-0.8°C 75% 2.0 mph WNW3.2 kmh WNW 4.0 mph6.4 kmh 30.16 in1021.3 mb 0.00 in0.0 mm 0.00 in0.0 mm 0.02 in0.5 mm
07:00 PM 37.7°F3.2°C 30.8°F-0.7°C 76% 3.0 mph WSW4.8 kmh WSW 8.0 mph12.9 kmh 30.16 in1021.3 mb 0.00 in0.0 mm 0.00 in0.0 mm 0.02 in0.5 mm
07:05 PM 37.8°F3.2°C 30.9°F-0.6°C 76% 3.0 mph WNW4.8 kmh WNW 4.0 mph6.4 kmh 30.16 in1021.3 mb 0.00 in0.0 mm 0.00 in0.0 mm 0.02 in0.5 mm
07:10 PM 37.8°F3.2°C 30.9°F-0.6°C 76% 8.0 mph NW12.9 kmh NW 8.0 mph12.9 kmh 30.17 in1021.7 mb 0.00 in0.0 mm 0.00 in0.0 mm 0.02 in0.5 mm
07:15 PM 37.8°F3.2°C 30.9°F-0.6°C 76% 3.0 mph NW4.8 kmh NW 3.0 mph4.8 kmh 30.17 in1021.7 mb 0.00 in0.0 mm 0.00 in0.0 mm 0.02 in0.5 mm
07:19 PM 37.9°F3.3°C 31.0°F-0.6°C 76% 3.0 mph NW4.8 kmh NW 8.0 mph12.9 kmh 30.17 in1021.7 mb 0.00 in0.0 mm 0.00 in0.0 mm 0.02 in0.5 mm
07:25 PM 37.9°F3.3°C 31.0°F-0.6°C 76% 3.0 mph NW4.8 kmh NW 3.0 mph4.8 kmh 30.17 in1021.7 mb 0.00 in0.0 mm 0.00 in0.0 mm 0.02 in0.5 mm
07:30 PM 37.8°F3.2°C 30.9°F-0.6°C 76% Calm Calm 2.0 mph3.2 kmh 30.17 in1021.7 mb 0.00 in0.0 mm 0.00 in0.0 mm 0.02 in0.5 mm
07:34 PM 37.9°F3.3°C 31.0°F-0.6°C 76% 2.0 mph W3.2 kmh W 2.0 mph3.2 kmh 30.17 in1021.7 mb 0.00 in0.0 mm 0.00 in0.0 mm 0.02 in0.5 mm
07:40 PM 37.9°F3.3°C 30.7°F-0.7°C 75% 4.0 mph NW6.4 kmh NW 4.0 mph6.4 kmh 30.18 in1022.0 mb 0.00 in0.0 mm 0.00 in0.0 mm 0.02 in0.5 mm
07:44 PM 37.9°F3.3°C 30.7°F-0.7°C 75% 1.0 mph WNW1.6 kmh WNW 3.0 mph4.8 kmh 30.18 in1022.0 mb 0.00 in0.0 mm 0.00 in0.0 mm 0.02 in0.5 mm
07:49 PM 37.9°F3.3°C 30.7°F-0.7°C 75% 1.0 mph WSW1.6 kmh WSW 3.0 mph4.8 kmh 30.18 in1022.0 mb 0.00 in0.0 mm 0.00 in0.0 mm 0.02 in0.5 mm
07:54 PM 37.9°F3.3°C 30.7°F-0.7°C 75% 2.0 mph W3.2 kmh W 3.0 mph4.8 kmh 30.18 in1022.0 mb 0.00 in0.0 mm 0.00 in0.0 mm 0.02 in0.5 mm
08:00 PM 37.9°F3.3°C 30.7°F-0.7°C 75% 6.0 mph W9.7 kmh W 6.0 mph9.7 kmh 30.18 in1022.0 mb 0.00 in0.0 mm 0.00 in0.0 mm 0.02 in0.5 mm
08:05 PM 37.9°F3.3°C 30.7°F-0.7°C 75% 8.0 mph WSW12.9 kmh WSW 8.0 mph12.9 kmh 30.19 in1022.4 mb 0.00 in0.0 mm 0.00 in0.0 mm 0.02 in0.5 mm
08:09 PM 38.0°F3.3°C 30.8°F-0.7°C 75% Calm Calm -- 30.19 in1022.4 mb 0.00 in0.0 mm 0.00 in0.0 mm 0.02 in0.5 mm
08:15 PM 38.0°F3.3°C 30.8°F-0.7°C 75% 2.0 mph W3.2 kmh W 2.0 mph3.2 kmh 30.19 in1022.4 mb 0.00 in0.0 mm 0.00 in0.0 mm 0.02 in0.5 mm
08:20 PM 37.9°F3.3°C 30.7°F-0.7°C 75% 2.0 mph W3.2 kmh W 3.0 mph4.8 kmh 30.19 in1022.4 mb 0.00 in0.0 mm 0.00 in0.0 mm 0.02 in0.5 mm
08:25 PM 37.9°F3.3°C 30.7°F-0.7°C 75% 4.0 mph WNW6.4 kmh WNW 4.0 mph6.4 kmh 30.19 in1022.4 mb 0.00 in0.0 mm 0.00 in0.0 mm 0.02 in0.5 mm
08:30 PM 37.9°F3.3°C 30.7°F-0.7°C 75% 1.0 mph WNW1.6 kmh WNW 1.0 mph1.6 kmh 30.20 in1022.7 mb 0.00 in0.0 mm 0.00 in0.0 mm 0.02 in0.5 mm
08:35 PM 37.8°F3.2°C 30.9°F-0.6°C 76% 1.0 mph WSW1.6 kmh WSW 2.0 mph3.2 kmh 30.20 in1022.7 mb 0.00 in0.0 mm 0.00 in0.0 mm 0.02 in0.5 mm
08:40 PM 37.8°F3.2°C 30.9°F-0.6°C 76% Calm Calm 2.0 mph3.2 kmh 30.20 in1022.7 mb 0.00 in0.0 mm 0.00 in0.0 mm 0.02 in0.5 mm
08:44 PM 37.7°F3.2°C 30.8°F-0.7°C 76% 2.0 mph WSW3.2 kmh WSW 2.0 mph3.2 kmh 30.20 in1022.7 mb 0.00 in0.0 mm 0.00 in0.0 mm 0.02 in0.5 mm
08:50 PM 37.6°F3.1°C 30.7°F-0.7°C 76% 1.0 mph WSW1.6 kmh WSW 3.0 mph4.8 kmh 30.21 in1023.0 mb 0.00 in0.0 mm 0.00 in0.0 mm 0.02 in0.5 mm
08:54 PM 37.6°F3.1°C 30.7°F-0.7°C 76% Calm Calm -- 30.21 in1023.0 mb 0.00 in0.0 mm 0.00 in0.0 mm 0.02 in0.5 mm
09:00 PM 37.5°F3.1°C 31.0°F-0.6°C 77% Calm Calm -- 30.21 in1023.0 mb 0.00 in0.0 mm 0.00 in0.0 mm 0.02 in0.5 mm
09:05 PM 37.4°F3.0°C 30.9°F-0.6°C 77% 2.0 mph WSW3.2 kmh WSW 2.0 mph3.2 kmh 30.22 in1023.4 mb 0.00 in0.0 mm 0.00 in0.0 mm 0.02 in0.5 mm
09:10 PM 37.3°F2.9°C 30.8°F-0.7°C 77% Calm Calm -- 30.22 in1023.4 mb 0.00 in0.0 mm 0.00 in0.0 mm 0.02 in0.5 mm
09:15 PM 37.2°F2.9°C 30.7°F-0.7°C 77% Calm Calm -- 30.22 in1023.4 mb 0.00 in0.0 mm 0.00 in0.0 mm 0.02 in0.5 mm
09:20 PM 37.1°F2.8°C 30.6°F-0.8°C 77% Calm Calm 1.0 mph1.6 kmh 30.22 in1023.4 mb 0.00 in0.0 mm 0.00 in0.0 mm 0.02 in0.5 mm
09:25 PM 36.9°F2.7°C 30.7°F-0.7°C 78% Calm Calm -- 30.23 in1023.7 mb 0.00 in0.0 mm 0.00 in0.0 mm 0.02 in0.5 mm
09:30 PM 36.8°F2.7°C 30.6°F-0.8°C 78% Calm Calm -- 30.23 in1023.7 mb 0.00 in0.0 mm 0.00 in0.0 mm 0.02 in0.5 mm
09:35 PM 36.7°F2.6°C 30.5°F-0.8°C 78% Calm Calm -- 30.23 in1023.7 mb 0.00 in0.0 mm 0.00 in0.0 mm 0.02 in0.5 mm
09:40 PM 36.6°F2.6°C 30.4°F-0.9°C 78% Calm Calm -- 30.24 in1024.0 mb 0.00 in0.0 mm 0.00 in0.0 mm 0.02 in0.5 mm
09:45 PM 36.5°F2.5°C 30.6°F-0.8°C 79% Calm Calm -- 30.24 in1024.0 mb 0.00 in0.0 mm 0.00 in0.0 mm 0.02 in0.5 mm
09:49 PM 36.3°F2.4°C 30.4°F-0.9°C 79% Calm Calm -- 30.24 in1024.0 mb 0.00 in0.0 mm 0.00 in0.0 mm 0.02 in0.5 mm
09:55 PM 36.1°F2.3°C 30.2°F-1.0°C 79% Calm Calm 1.0 mph1.6 kmh 30.24 in1024.0 mb 0.00 in0.0 mm 0.00 in0.0 mm 0.02 in0.5 mm
10:00 PM 36.1°F2.3°C 30.5°F-0.8°C 80% Calm Calm 1.0 mph1.6 kmh 30.24 in1024.0 mb 0.00 in0.0 mm 0.00 in0.0 mm 0.02 in0.5 mm
10:05 PM 36.0°F2.2°C 30.4°F-0.9°C 80% Calm Calm -- 30.25 in1024.4 mb 0.00 in0.0 mm 0.00 in0.0 mm 0.02 in0.5 mm
10:10 PM 35.9°F2.2°C 30.3°F-0.9°C 80% Calm Calm -- 30.25 in1024.4 mb 0.00 in0.0 mm 0.00 in0.0 mm 0.02 in0.5 mm
10:15 PM 35.7°F2.1°C 30.2°F-1.0°C 80% Calm Calm -- 30.25 in1024.4 mb 0.00 in0.0 mm 0.00 in0.0 mm 0.02 in0.5 mm
10:20 PM 35.5°F1.9°C 30.3°F-0.9°C 81% Calm Calm -- 30.25 in1024.4 mb 0.00 in0.0 mm 0.00 in0.0 mm 0.02 in0.5 mm
10:25 PM 35.2°F1.8°C 30.0°F-1.1°C 81% Calm Calm -- 30.25 in1024.4 mb 0.00 in0.0 mm 0.00 in0.0 mm 0.02 in0.5 mm
10:30 PM 35.1°F1.7°C 29.9°F-1.2°C 81% Calm Calm -- 30.25 in1024.4 mb 0.00 in0.0 mm 0.00 in0.0 mm 0.02 in0.5 mm
10:35 PM 34.9°F1.6°C 30.0°F-1.1°C 82% Calm Calm -- 30.25 in1024.4 mb 0.00 in0.0 mm 0.00 in0.0 mm 0.02 in0.5 mm
10:39 PM 34.7°F1.5°C 29.8°F-1.2°C 82% 1.0 mph WSW1.6 kmh WSW 2.0 mph3.2 kmh 30.25 in1024.4 mb 0.00 in0.0 mm 0.00 in0.0 mm 0.02 in0.5 mm
10:45 PM 34.8°F1.6°C 30.2°F-1.0°C 83% 1.0 mph WSW1.6 kmh WSW 2.0 mph3.2 kmh 30.26 in1024.7 mb 0.00 in0.0 mm 0.00 in0.0 mm 0.02 in0.5 mm
10:50 PM 34.9°F1.6°C 30.3°F-0.9°C 83% Calm Calm 2.0 mph3.2 kmh 30.26 in1024.7 mb 0.00 in0.0 mm 0.00 in0.0 mm 0.02 in0.5 mm
10:55 PM 34.9°F1.6°C 30.3°F-0.9°C 83% 1.0 mph WSW1.6 kmh WSW 1.0 mph1.6 kmh 30.26 in1024.7 mb 0.00 in0.0 mm 0.00 in0.0 mm 0.02 in0.5 mm
11:00 PM 34.9°F1.6°C 30.3°F-0.9°C 83% 1.0 mph WSW1.6 kmh WSW 2.0 mph3.2 kmh 30.26 in1024.7 mb 0.00 in0.0 mm 0.00 in0.0 mm 0.02 in0.5 mm
11:04 PM 34.8°F1.6°C 30.2°F-1.0°C 83% 3.0 mph WSW4.8 kmh WSW 3.0 mph4.8 kmh 30.26 in1024.7 mb 0.00 in0.0 mm 0.00 in0.0 mm 0.02 in0.5 mm
11:09 PM 34.8°F1.6°C 30.2°F-1.0°C 83% 2.0 mph WSW3.2 kmh WSW 2.0 mph3.2 kmh 30.26 in1024.7 mb 0.00 in0.0 mm 0.00 in0.0 mm 0.02 in0.5 mm
11:15 PM 34.8°F1.6°C 30.2°F-1.0°C 83% Calm Calm -- 30.26 in1024.7 mb 0.00 in0.0 mm 0.00 in0.0 mm 0.02 in0.5 mm
11:20 PM 34.7°F1.5°C 30.1°F-1.1°C 83% 2.0 mph WSW3.2 kmh WSW 2.0 mph3.2 kmh 30.26 in1024.7 mb 0.00 in0.0 mm 0.00 in0.0 mm 0.02 in0.5 mm
11:24 PM 34.7°F1.5°C 30.1°F-1.1°C 83% 1.0 mph WSW1.6 kmh WSW 2.0 mph3.2 kmh 30.26 in1024.7 mb 0.00 in0.0 mm 0.00 in0.0 mm 0.02 in0.5 mm
11:30 PM 34.7°F1.5°C 30.1°F-1.1°C 83% 3.0 mph WSW4.8 kmh WSW 4.0 mph6.4 kmh 30.27 in1025.1 mb 0.00 in0.0 mm 0.00 in0.0 mm 0.02 in0.5 mm
11:35 PM 34.8°F1.6°C 30.2°F-1.0°C 83% 3.0 mph WSW4.8 kmh WSW 3.0 mph4.8 kmh 30.27 in1025.1 mb 0.00 in0.0 mm 0.00 in0.0 mm 0.02 in0.5 mm
11:39 PM 35.0°F1.7°C 30.4°F-0.9°C 83% 4.0 mph SW6.4 kmh SW 4.0 mph6.4 kmh 30.27 in1025.1 mb 0.00 in0.0 mm 0.00 in0.0 mm 0.02 in0.5 mm
11:45 PM 35.0°F1.7°C 30.1°F-1.1°C 82% 2.0 mph SW3.2 kmh SW 2.0 mph3.2 kmh 30.27 in1025.1 mb 0.00 in0.0 mm 0.00 in0.0 mm 0.02 in0.5 mm
11:50 PM 35.0°F1.7°C 30.1°F-1.1°C 82% 1.0 mph SW1.6 kmh SW 1.0 mph1.6 kmh 30.27 in1025.1 mb 0.00 in0.0 mm 0.00 in0.0 mm 0.02 in0.5 mm
11:54 PM 35.0°F1.7°C 30.1°F-1.1°C 82% 4.0 mph SW6.4 kmh SW 4.0 mph6.4 kmh 30.27 in1025.1 mb 0.00 in0.0 mm 0.00 in0.0 mm 0.02 in0.5 mm